Time;durP1;ratioP1;P1;durP2;ratioP2;P2;SDS_P1;SDS_P2;PMS_P1;PMS_P2;Temp;Humidity;BMP_temperature;BMP_pressure;BME280_temperature;BME280_humidity;BME280_pressure;Samples;Min_cycle;Max_cycle;Signal;HPM_P1;HPM_P2
2022/02/01 00:01:00;;;;;;;1999.90;999.90;;;3.90;99.90;;;;;;4911667;29;20996;-79
2022/02/01 00:03:32;;;;;;;1999.90;999.90;;;3.90;99.90;;;;;;4957539;28;20471;-78
2022/02/01 00:06:09;;;;;;;1999.90;169.03;;;3.90;99.90;;;;;;4963817;28;20506;-79
2022/02/01 00:08:44;;;;;;;1999.90;999.90;;;3.90;99.90;;;;;;4965823;28;20477;-79
2022/02/01 00:11:27;;;;;;;1999.90;999.90;;;3.90;99.90;;;;;;4966814;28;20557;-78
2022/02/01 00:14:07;;;;;;;1999.90;999.90;;;3.90;99.90;;;;;;4958810;28;20438;-78
2022/02/01 00:16:57;;;;;;;1999.90;999.90;;;3.90;99.90;;;;;;4957261;29;20467;-79
2022/02/01 00:33:51;;;;;;;1999.90;999.90;;;3.90;99.90;;;;;;4957248;28;20481;-78
2022/02/01 00:36:30;;;;;;;1999.90;999.90;;;3.90;99.90;;;;;;4967130;28;20465;-79
2022/02/01 00:39:02;;;;;;;1999.90;999.90;;;3.90;99.90;;;;;;4976127;28;20481;-79
2022/02/01 00:41:33;;;;;;;1999.90;999.90;;;3.90;99.90;;;;;;4974320;28;20449;-79
2022/02/01 00:44:02;;;;;;;1899.90;729.83;;;3.90;99.90;;;;;;4969305;28;20464;-79
2022/02/01 00:46:31;;;;;;;1999.90;999.90;;;3.90;99.90;;;;;;4961696;28;20455;-78
2022/02/01 00:48:59;;;;;;;1999.90;999.90;;;3.90;99.90;;;;;;4958710;28;20471;-79
2022/02/01 00:51:30;;;;;;;1670.30;714.47;;;3.90;99.90;;;;;;4957484;28;20931;-79
2022/02/01 00:53:58;;;;;;;1999.90;999.90;;;3.90;99.90;;;;;;4959190;28;20536;-78
2022/02/01 00:56:26;;;;;;;1999.90;999.90;;;3.90;99.90;;;;;;4959052;28;20514;-79
2022/02/01 00:58:54;;;;;;;1604.67;446.80;;;3.90;99.90;;;;;;4966394;28;20867;-79
2022/02/01 01:01:24;;;;;;;1999.90;999.90;;;3.90;99.90;;;;;;4956959;28;20980;-79
2022/02/01 01:03:53;;;;;;;1999.90;247.57;;;3.90;99.90;;;;;;4957588;28;20446;-78
2022/02/01 01:06:21;;;;;;;1999.90;702.40;;;3.90;99.90;;;;;;4957208;28;20438;-78
2022/02/01 01:08:51;;;;;;;1999.90;999.90;;;3.90;99.90;;;;;;4956304;28;20474;-79
2022/02/01 01:11:19;;;;;;;1999.90;731.17;;;3.90;99.90;;;;;;4956692;28;20466;-78
2022/02/01 01:16:55;;;;;;;1999.90;698.33;;;3.90;99.90;;;;;;4963320;28;20457;-79
2022/02/01 01:43:30;;;;;;;1999.90;289.80;;;3.80;99.90;;;;;;4957566;28;20548;-78
2022/02/01 01:44:34;;;;;;;1999.90;508.03;;;3.70;99.90;;;;;;5033472;28;20545;-78
2022/02/01 01:55:20;;;;;;;1999.90;608.03;;;3.70;99.90;;;;;;4962592;28;20519;-79
2022/02/01 01:57:49;;;;;;;1999.90;540.27;;;3.70;99.90;;;;;;4966190;28;21065;-79
2022/02/01 02:00:31;;;;;;;1999.90;550.67;;;3.80;99.90;;;;;;4974400;28;20509;-79
2022/02/01 02:03:01;;;;;;;1999.90;561.03;;;3.70;99.90;;;;;;4974959;28;20497;-79
2022/02/01 02:05:30;;;;;;;1999.90;478.47;;;3.70;99.90;;;;;;4973812;28;20461;-78
2022/02/01 02:07:58;;;;;;;1999.90;344.77;;;3.70;99.90;;;;;;4966102;28;20475;-78
2022/02/01 02:10:31;;;;;;;1999.90;270.77;;;3.70;99.90;;;;;;4955139;28;20959;-78
2022/02/01 02:14:17;;;;;;;1999.90;424.33;;;3.80;99.90;;;;;;4954803;28;20448;-78
2022/02/01 02:16:02;;;;;;;1999.90;406.73;;;3.80;99.90;;;;;;4955902;28;20541;-78
2022/02/01 02:18:33;;;;;;;1999.90;454.50;;;3.90;99.90;;;;;;4955529;28;20476;-79
2022/02/01 02:21:05;;;;;;;1999.90;505.83;;;3.80;99.90;;;;;;4958338;28;20484;-79
2022/02/01 02:23:33;;;;;;;1999.90;469.33;;;3.80;99.90;;;;;;4959012;28;20466;-78
2022/02/01 02:26:07;;;;;;;1999.90;500.30;;;3.80;99.90;;;;;;4964656;28;20457;-79
2022/02/01 02:28:36;;;;;;;1999.90;533.87;;;3.90;99.90;;;;;;4958838;28;20574;-78
2022/02/01 02:31:07;;;;;;;1999.90;600.40;;;3.80;99.90;;;;;;4959185;28;20443;-78
2022/02/01 02:33:37;;;;;;;1999.90;499.37;;;3.80;99.90;;;;;;4957107;28;20512;-78
2022/02/01 02:36:14;;;;;;;1999.90;467.07;;;3.70;99.90;;;;;;4967096;28;20952;-78
2022/02/01 02:38:46;;;;;;;1999.90;570.10;;;3.70;99.90;;;;;;4976911;28;20484;-78
2022/02/01 02:41:29;;;;;;;1999.90;611.90;;;3.70;99.90;;;;;;4978429;28;20433;-78
2022/02/01 02:46:46;;;;;;;1999.90;586.47;;;3.70;99.90;;;;;;4957407;28;20457;-78
2022/02/01 02:49:17;;;;;;;1999.90;705.73;;;3.70;99.90;;;;;;4957206;28;20473;-78
2022/02/01 02:51:47;;;;;;;1999.90;490.43;;;3.60;99.90;;;;;;4958539;28;20419;-79
2022/02/01 02:54:17;;;;;;;1999.90;508.27;;;3.60;99.90;;;;;;4957343;28;20950;-78
2022/02/01 02:56:48;;;;;;;1999.90;525.70;;;3.60;99.90;;;;;;4961322;28;20470;-78
2022/02/01 02:59:17;;;;;;;1999.90;509.77;;;3.70;99.90;;;;;;4976089;28;20571;-78
2022/02/01 03:01:47;;;;;;;1999.90;509.13;;;3.60;99.90;;;;;;4967938;28;20461;-78
2022/02/01 03:04:16;;;;;;;1999.90;516.73;;;3.60;99.90;;;;;;4972894;28;20465;-78
2022/02/01 03:06:45;;;;;;;1999.90;438.03;;;3.60;99.90;;;;;;4976671;28;20443;-78
2022/02/01 03:09:16;;;;;;;1999.90;409.93;;;3.60;99.90;;;;;;4976128;28;20502;-78
2022/02/01 03:11:47;;;;;;;1999.90;419.80;;;3.60;99.90;;;;;;4977202;28;20448;-79
2022/02/01 03:14:25;;;;;;;1999.90;449.77;;;3.60;99.90;;;;;;4976350;28;20454;-78
2022/02/01 03:17:03;;;;;;;1999.90;434.20;;;3.60;99.90;;;;;;4977597;28;20416;-79
2022/02/01 03:22:18;;;;;;;1999.90;325.70;;;3.50;99.90;;;;;;4978813;28;20558;-79
2022/02/01 03:24:48;;;;;;;1999.90;520.17;;;3.60;99.90;;;;;;4978386;28;20494;-78
2022/02/01 03:27:19;;;;;;;1999.90;497.23;;;3.60;99.90;;;;;;4981132;28;20519;-78
2022/02/01 03:29:47;;;;;;;1999.90;633.80;;;3.60;99.90;;;;;;4979189;28;20456;-78
2022/02/01 03:32:16;;;;;;;1999.90;549.47;;;3.60;99.90;;;;;;4979677;28;20954;-78
2022/02/01 03:34:44;;;;;;;1999.90;495.50;;;3.60;99.90;;;;;;4962410;28;20555;-79
2022/02/01 03:37:12;;;;;;;1999.90;552.80;;;3.60;99.90;;;;;;4959223;28;20486;-79
2022/02/01 03:39:41;;;;;;;1999.90;544.90;;;3.60;99.90;;;;;;4958321;28;20477;-78
2022/02/01 03:42:12;;;;;;;1999.90;481.63;;;3.60;99.90;;;;;;4959611;28;20439;-78
2022/02/01 03:44:41;;;;;;;1999.90;510.80;;;3.60;99.90;;;;;;4976335;28;20495;-78
2022/02/01 03:47:11;;;;;;;1999.90;545.97;;;3.60;99.90;;;;;;4978153;28;20813;-78
2022/02/01 03:49:41;;;;;;;1999.90;609.73;;;3.60;99.90;;;;;;4976718;28;20529;-78
2022/02/01 03:52:10;;;;;;;1999.90;857.03;;;3.60;99.90;;;;;;4978348;28;20872;-79
2022/02/01 03:54:42;;;;;;;1999.90;490.90;;;3.60;99.90;;;;;;4976873;28;20818;-78
2022/02/01 03:57:15;;;;;;;1999.90;540.30;;;3.50;99.90;;;;;;4976163;28;20461;-78
2022/02/01 03:59:44;;;;;;;1999.90;524.57;;;3.60;99.90;;;;;;4965682;28;20479;-79
2022/02/01 04:02:14;;;;;;;1999.90;565.33;;;3.50;99.90;;;;;;4977078;28;20449;-79
2022/02/01 04:04:45;;;;;;;1999.90;459.57;;;3.50;99.90;;;;;;4976583;28;20449;-79
2022/02/01 04:07:13;;;;;;;1999.90;562.00;;;3.60;99.90;;;;;;4971251;28;21069;-79
2022/02/01 04:09:41;;;;;;;1999.90;874.30;;;3.50;99.90;;;;;;4970231;28;20935;-79
2022/02/01 04:12:11;;;;;;;1999.90;331.50;;;3.50;99.90;;;;;;4977449;28;20441;-78
2022/02/01 04:14:39;;;;;;;1999.90;435.83;;;3.40;99.90;;;;;;4960703;28;20547;-78
2022/02/01 04:17:10;;;;;;;1999.90;755.47;;;3.40;99.90;;;;;;4957084;28;20448;-78
2022/02/01 04:19:39;;;;;;;1999.90;774.73;;;3.40;99.90;;;;;;4972816;28;20514;-78
2022/02/01 04:22:08;;;;;;;1999.90;999.90;;;3.40;99.90;;;;;;4958958;28;20455;-79
2022/02/01 04:24:37;;;;;;;1999.90;753.67;;;3.40;99.90;;;;;;4956331;28;20507;-78
2022/02/01 04:27:07;;;;;;;1999.90;241.70;;;3.40;99.90;;;;;;4958075;28;20541;-78
2022/02/01 04:29:41;;;;;;;1999.90;284.20;;;3.40;99.90;;;;;;4967479;28;20513;-78
2022/02/01 04:32:10;;;;;;;1999.90;262.07;;;3.40;99.90;;;;;;4977048;28;20449;-78
2022/02/01 04:34:38;;;;;;;1999.90;496.53;;;3.30;99.90;;;;;;4975530;28;20505;-78
2022/02/01 04:37:07;;;;;;;1999.90;484.60;;;3.40;99.90;;;;;;4976952;28;20445;-78
2022/02/01 04:39:36;;;;;;;1999.90;999.90;;;3.40;99.90;;;;;;4975041;28;20993;-79
2022/02/01 04:42:05;;;;;;;1999.90;195.00;;;3.30;99.90;;;;;;4974861;28;20974;-78
2022/02/01 04:44:33;;;;;;;1999.90;210.50;;;3.30;99.90;;;;;;4977163;28;20468;-78
2022/02/01 04:47:03;;;;;;;1999.90;180.07;;;3.30;99.90;;;;;;4972731;28;20990;-78
2022/02/01 04:49:31;;;;;;;1999.90;703.57;;;3.30;99.90;;;;;;4972411;28;20482;-79
2022/02/01 04:52:00;;;;;;;1999.90;173.47;;;3.20;99.90;;;;;;4955828;28;20474;-78
2022/02/01 04:54:28;;;;;;;1999.90;715.33;;;3.30;99.90;;;;;;4955688;28;20461;-79
2022/02/01 04:56:56;;;;;;;1999.90;999.90;;;3.30;99.90;;;;;;4955900;28;20472;-78
2022/02/01 04:59:25;;;;;;;1352.13;185.13;;;3.30;99.90;;;;;;4955484;28;20493;-78
2022/02/01 05:01:54;;;;;;;1999.90;130.40;;;3.20;99.90;;;;;;4965178;28;21068;-78
2022/02/01 05:04:26;;;;;;;1999.90;140.50;;;3.20;99.90;;;;;;4975034;28;20457;-78
2022/02/01 05:06:55;;;;;;;1999.90;162.90;;;3.20;99.90;;;;;;4961143;28;20463;-79
2022/02/01 05:09:24;;;;;;;1999.90;999.90;;;3.20;99.90;;;;;;4957393;28;20451;-78
2022/02/01 05:11:55;;;;;;;1752.17;394.20;;;3.20;99.90;;;;;;4957338;28;20448;-78
2022/02/01 05:14:25;;;;;;;1999.90;723.50;;;3.20;99.90;;;;;;4967978;28;20450;-78
2022/02/01 05:17:00;;;;;;;1966.83;434.43;;;3.20;99.90;;;;;;4975688;28;20484;-78
2022/02/01 05:22:19;;;;;;;1871.93;706.50;;;3.20;99.90;;;;;;4947707;28;20497;-78
2022/02/01 05:24:53;;;;;;;1999.90;999.90;;;3.20;99.90;;;;;;4955662;28;20464;-79
2022/02/01 05:27:27;;;;;;;1992.80;695.47;;;3.30;99.90;;;;;;4957350;28;20468;-78
2022/02/01 05:29:57;;;;;;;1999.90;470.93;;;3.20;99.90;;;;;;4957096;28;20435;-78
2022/02/01 05:32:28;;;;;;;1999.90;999.90;;;3.30;99.90;;;;;;4956549;28;20433;-78
2022/02/01 05:34:59;;;;;;;1999.90;999.90;;;3.30;99.90;;;;;;4955847;28;20438;-78
2022/02/01 05:37:28;;;;;;;1556.63;434.53;;;3.30;99.90;;;;;;4955985;28;20526;-79
2022/02/01 05:39:58;;;;;;;1999.90;999.90;;;3.30;99.90;;;;;;4956192;28;20466;-78
2022/02/01 05:42:40;;;;;;;1999.90;999.90;;;3.30;99.90;;;;;;4955057;28;20552;-79
2022/02/01 05:45:10;;;;;;;1578.27;101.33;;;3.30;99.90;;;;;;4955651;28;20990;-80
2022/02/01 05:47:41;;;;;;;1969.00;146.47;;;3.30;99.90;;;;;;4957069;28;20485;-78
2022/02/01 05:50:11;;;;;;;1197.10;85.17;;;3.30;99.90;;;;;;4955480;28;20445;-78
2022/02/01 05:52:40;;;;;;;1999.90;999.90;;;3.40;99.90;;;;;;4957667;28;20923;-78
2022/02/01 05:55:10;;;;;;;1999.90;999.90;;;3.40;99.90;;;;;;4958651;28;20448;-78
2022/02/01 05:57:39;;;;;;;1999.90;999.90;;;3.40;99.90;;;;;;4963436;28;20950;-78
2022/02/01 06:00:08;;;;;;;1999.90;999.90;;;3.40;99.90;;;;;;4959329;28;20514;-78
2022/02/01 06:02:41;;;;;;;1999.90;999.90;;;3.40;99.90;;;;;;4959700;28;20481;-78
2022/02/01 06:05:13;;;;;;;1999.90;999.90;;;3.40;99.90;;;;;;4959923;28;20473;-78
2022/02/01 06:08:03;;;;;;;1999.90;999.90;;;3.50;99.90;;;;;;4959684;29;20483;-79
2022/02/01 06:10:32;;;;;;;1999.90;999.90;;;3.50;99.90;;;;;;4959245;28;20512;-78
2022/02/01 06:13:00;;;;;;;1999.90;999.90;;;3.50;99.90;;;;;;4958459;28;20518;-78
2022/02/01 06:15:30;;;;;;;1999.90;999.90;;;3.50;99.90;;;;;;4959417;28;20790;-78
2022/02/01 06:17:58;;;;;;;1999.90;999.90;;;3.50;99.90;;;;;;4958732;28;20511;-79
2022/02/01 06:20:29;;;;;;;1999.90;999.90;;;3.60;99.90;;;;;;4959504;28;20446;-78
2022/02/01 06:22:57;;;;;;;1764.77;703.07;;;3.60;99.90;;;;;;4958454;28;20448;-78
2022/02/01 06:25:47;;;;;;;1999.90;999.90;;;3.60;99.90;;;;;;4959108;28;20527;-79
2022/02/01 06:28:17;;;;;;;1999.90;999.90;;;3.60;99.90;;;;;;4957597;28;20512;-78
2022/02/01 06:30:46;;;;;;;1999.90;999.90;;;3.60;99.90;;;;;;4957770;28;20453;-79
2022/02/01 06:33:15;;;;;;;1999.90;999.90;;;3.60;99.90;;;;;;4957602;28;20848;-78
2022/02/01 06:35:45;;;;;;;1999.90;999.90;;;3.60;99.90;;;;;;4957650;28;20851;-79
2022/02/01 06:38:14;;;;;;;1999.90;267.93;;;3.60;99.90;;;;;;4958146;28;20552;-78
2022/02/01 06:40:45;;;;;;;1999.90;999.90;;;3.70;99.90;;;;;;4957917;28;20535;-78
2022/02/01 06:43:13;;;;;;;1999.90;999.90;;;3.70;99.90;;;;;;4958661;29;20488;-78
2022/02/01 06:45:42;;;;;;;1999.90;999.90;;;3.70;99.90;;;;;;4958326;28;20509;-78
2022/02/01 06:48:10;;;;;;;1999.90;999.90;;;3.70;99.90;;;;;;4959704;28;21041;-78
2022/02/01 06:50:46;;;;;;;1999.90;999.90;;;3.70;99.90;;;;;;4959820;28;20456;-78
2022/02/01 06:53:20;;;;;;;1999.90;999.90;;;3.70;99.90;;;;;;4957104;28;20521;-78
2022/02/01 06:56:00;;;;;;;1999.90;999.90;;;3.70;99.90;;;;;;4956584;28;20453;-78
2022/02/01 06:58:30;;;;;;;1999.90;999.90;;;3.70;99.90;;;;;;4958524;28;20840;-79
2022/02/01 07:00:58;;;;;;;1999.90;290.40;;;3.70;99.90;;;;;;4957917;28;20540;-78
2022/02/01 07:03:29;;;;;;;1999.90;999.90;;;3.70;99.90;;;;;;4958622;28;20493;-79
2022/02/01 07:06:11;;;;;;;;;;;;;;;;;;;;;
2022/02/01 07:19:47;;;;;;;1114.73;67.20;;;3.70;99.90;;;;;;4868326;29;20465;-79
2022/02/01 07:50:39;;;;;;;1999.90;999.90;;;3.90;99.90;;;;;;4819721;29;20457;-78
2022/02/01 08:02:55;;;;;;;1999.90;999.90;;;4.00;99.90;;;;;;4859326;29;20486;-78
2022/02/01 08:05:29;;;;;;;1369.80;434.33;;;4.10;99.90;;;;;;4846510;29;20447;-79
2022/02/01 08:08:01;;;;;;;1701.03;694.07;;;4.10;99.90;;;;;;4846135;29;20517;-78
2022/02/01 08:10:36;;;;;;;1999.90;736.10;;;4.10;99.90;;;;;;4876242;29;20460;-78
2022/02/01 08:13:55;;;;;;;1999.90;721.33;;;4.10;99.90;;;;;;4883232;28;20920;-78
2022/02/01 08:19:12;;;;;;;1999.90;999.90;;;4.20;99.90;;;;;;4956705;28;20485;-79
2022/02/01 08:22:06;;;;;;;1999.90;714.43;;;4.20;99.90;;;;;;4956496;28;20466;-78
2022/02/01 08:24:35;;;;;;;1883.20;724.60;;;4.20;99.90;;;;;;4955916;28;20446;-78
2022/02/01 08:27:05;;;;;;;1999.90;999.90;;;4.30;99.90;;;;;;4956322;28;20927;-79
2022/02/01 08:29:33;;;;;;;1999.90;999.90;;;4.30;99.90;;;;;;4956536;28;20466;-79
2022/02/01 08:32:02;;;;;;;1999.90;999.90;;;4.30;99.90;;;;;;4957853;28;20943;-79
2022/02/01 08:34:30;;;;;;;1999.90;733.97;;;4.40;99.90;;;;;;4956766;28;20454;-78
2022/02/01 08:36:58;;;;;;;1999.90;999.90;;;4.40;99.90;;;;;;4956740;28;20454;-78
2022/02/01 08:39:26;;;;;;;1999.90;999.90;;;4.40;99.90;;;;;;4956060;28;20480;-78
2022/02/01 08:41:56;;;;;;;1684.50;155.63;;;4.40;99.90;;;;;;4955766;28;20485;-78
2022/02/01 08:44:28;;;;;;;1909.83;733.87;;;4.40;99.90;;;;;;4956904;28;20465;-79
2022/02/01 08:46:57;;;;;;;1999.90;174.60;;;4.50;99.90;;;;;;4957660;28;20437;-78
2022/02/01 08:49:25;;;;;;;1999.90;750.27;;;4.50;99.90;;;;;;4956092;28;20467;-78
2022/02/01 08:51:59;;;;;;;1999.90;735.97;;;4.50;99.90;;;;;;4958513;28;20471;-78
2022/02/01 08:54:29;;;;;;;1999.90;999.90;;;4.60;99.90;;;;;;4956932;28;20533;-78
2022/02/01 08:59:48;;;;;;;1770.30;451.40;;;4.60;99.90;;;;;;4949782;28;20549;-78
2022/02/01 09:02:18;;;;;;;1999.90;734.17;;;4.60;99.90;;;;;;4956722;28;20510;-79
2022/02/01 09:04:49;;;;;;;1999.90;736.40;;;4.70;99.90;;;;;;4957708;28;20502;-78
2022/02/01 09:08:22;;;;;;;1999.90;730.23;;;4.70;99.90;;;;;;4914532;28;20479;-78
2022/02/01 09:11:01;;;;;;;;;;;;;;;;;;;;;
2022/02/01 09:13:38;;;;;;;1999.90;999.90;;;4.80;99.90;;;;;;4955953;28;20487;-78
2022/02/01 09:16:34;;;;;;;1999.90;999.90;;;4.80;99.90;;;;;;4956217;29;20453;-79
2022/02/01 09:19:03;;;;;;;1999.90;999.90;;;4.80;99.90;;;;;;4956077;28;20479;-78
2022/02/01 09:21:31;;;;;;;1941.60;463.60;;;4.80;99.90;;;;;;4956502;28;20824;-78
2022/02/01 09:24:01;;;;;;;1999.90;999.90;;;4.90;99.90;;;;;;4956682;28;20476;-78
2022/02/01 09:26:29;;;;;;;1999.90;999.90;;;4.80;99.90;;;;;;4956975;28;20457;-78
2022/02/01 09:29:19;;;;;;;1999.90;999.90;;;4.80;99.90;;;;;;4959691;28;21080;-78
2022/02/01 09:31:48;;;;;;;1999.90;999.90;;;4.80;99.90;;;;;;4959966;28;20442;-79
2022/02/01 09:34:17;;;;;;;1999.90;999.90;;;4.90;99.90;;;;;;4960620;28;20530;-78
2022/02/01 09:36:49;;;;;;;1660.33;495.90;;;4.90;99.90;;;;;;4958941;29;20952;-78
2022/02/01 09:39:18;;;;;;;1999.70;532.90;;;4.90;99.90;;;;;;4960196;28;20489;-78
2022/02/01 09:41:46;;;;;;;1662.13;492.97;;;4.90;99.90;;;;;;4959088;28;20457;-78
2022/02/01 09:44:15;;;;;;;1999.90;999.90;;;4.90;99.90;;;;;;4959349;28;20474;-78
2022/02/01 09:46:46;;;;;;;1906.63;554.00;;;4.90;99.90;;;;;;4958906;28;20454;-79
2022/02/01 09:49:22;;;;;;;1716.00;531.63;;;4.90;99.90;;;;;;4959509;28;20474;-78
2022/02/01 09:51:51;;;;;;;1804.57;274.10;;;4.90;99.90;;;;;;4960153;28;20459;-79
2022/02/01 09:55:07;;;;;;;;;;;;;;;;;;;;;
2022/02/01 09:58:16;;;;;;;1999.90;746.83;;;4.90;99.90;;;;;;4962277;28;20506;-78
2022/02/01 10:04:21;;;;;;;1925.30;518.97;;;4.90;99.90;;;;;;5019901;28;20483;-79
2022/02/01 10:06:56;;;;;;;1778.77;544.17;;;5.00;99.90;;;;;;5003550;28;20501;-78
2022/02/01 10:09:47;;;;;;;1808.77;352.27;;;4.80;99.90;;;;;;4935839;28;20472;-79
2022/02/01 10:12:17;;;;;;;1999.90;409.13;;;5.00;99.90;;;;;;4920774;29;20482;-78
2022/02/01 10:14:52;;;;;;;1999.90;378.80;;;5.00;99.90;;;;;;4904330;28;20448;-78
2022/02/01 10:17:34;;;;;;;1907.17;432.20;;;5.00;99.90;;;;;;4919843;28;20512;-79
2022/02/01 10:20:05;;;;;;;1895.53;409.37;;;5.00;99.90;;;;;;4904050;29;20468;-78
2022/02/01 10:22:36;;;;;;;769.40;220.80;;;5.00;99.90;;;;;;4920185;29;20504;-78
2022/02/01 10:25:07;;;;;;;910.93;246.53;;;5.10;99.90;;;;;;4904072;29;20463;-79
2022/02/01 10:27:38;;;;;;;1291.37;310.50;;;5.10;99.90;;;;;;4919748;28;20480;-79
2022/02/01 10:37:29;;;;;;;1999.90;537.37;;;5.10;99.90;;;;;;4915312;29;20444;-79
2022/02/01 10:40:02;;;;;;;1405.20;341.80;;;5.20;99.90;;;;;;4921910;28;20509;-79
2022/02/01 10:42:30;;;;;;;969.07;176.90;;;5.20;99.90;;;;;;4938424;29;20550;-78
2022/02/01 10:45:00;;;;;;;737.37;198.33;;;5.20;99.90;;;;;;4922207;29;20490;-78
2022/02/01 10:47:35;;;;;;;549.63;170.53;;;5.20;99.90;;;;;;4922398;28;21056;-79
2022/02/01 10:50:07;;;;;;;483.67;151.20;;;5.20;99.90;;;;;;4938717;29;20467;-79
2022/02/01 10:52:39;;;;;;;484.57;157.70;;;5.30;99.90;;;;;;4938503;29;20448;-78
2022/02/01 10:55:09;;;;;;;230.93;32.30;;;5.30;99.90;;;;;;4922438;28;20875;-78
2022/02/01 10:57:37;;;;;;;283.33;65.20;;;5.30;99.90;;;;;;4922630;28;20843;-79
2022/02/01 11:00:08;;;;;;;402.00;74.20;;;5.40;99.90;;;;;;4922438;29;20491;-78
2022/02/01 11:02:42;;;;;;;337.23;47.70;;;5.40;99.90;;;;;;4922669;28;20447;-78
2022/02/01 11:05:14;;;;;;;291.67;49.60;;;5.40;99.90;;;;;;4957172;29;20521;-78
2022/02/01 11:08:07;;;;;;;257.70;94.63;;;5.40;99.90;;;;;;4958103;29;20509;-79
2022/02/01 11:10:44;;;;;;;307.90;101.97;;;5.50;99.90;;;;;;4959573;28;20486;-79
2022/02/01 11:13:13;;;;;;;403.50;72.27;;;5.50;99.90;;;;;;4957951;28;20450;-79
2022/02/01 11:15:56;;;;;;;180.87;36.63;;;5.50;99.90;;;;;;4958317;28;20462;-79
2022/02/01 11:18:27;;;;;;;267.70;39.43;;;5.50;99.90;;;;;;4959282;28;20482;-79
2022/02/01 11:21:11;;;;;;;242.33;37.07;;;5.50;99.90;;;;;;4957858;28;20461;-78
2022/02/01 11:23:49;;;;;;;255.97;26.00;;;5.60;99.90;;;;;;4959163;28;20470;-78
2022/02/01 11:27:13;;;;;;;164.77;30.43;;;5.60;99.90;;;;;;4958560;28;20500;-79
2022/02/01 11:30:11;;;;;;;212.00;31.57;;;5.70;99.90;;;;;;4960049;28;20442;-79
2022/02/01 11:32:51;;;;;;;88.50;53.37;;;5.70;99.90;;;;;;4958098;29;20447;-79
2022/02/01 11:35:26;;;;;;;283.93;36.67;;;5.70;99.90;;;;;;4960408;28;20423;-79
2022/02/01 11:38:16;;;;;;;216.73;31.93;;;5.80;99.90;;;;;;4958043;28;20472;-79
2022/02/01 11:40:48;;;;;;;237.03;33.47;;;5.80;99.90;;;;;;4958476;28;20442;-78
2022/02/01 11:43:40;;;;;;;188.10;27.00;;;5.80;99.90;;;;;;4958378;28;20477;-78
2022/02/01 11:46:12;;;;;;;192.13;25.07;;;5.80;99.90;;;;;;4958910;28;20477;-78
2022/02/01 11:48:51;;;;;;;120.23;29.63;;;5.90;99.90;;;;;;4958258;28;20502;-79
2022/02/01 11:51:26;;;;;;;158.63;29.20;;;5.90;99.90;;;;;;4958018;28;20482;-79
2022/02/01 11:53:59;;;;;;;198.00;36.43;;;6.00;99.90;;;;;;4962286;28;20486;-79
2022/02/01 11:56:37;;;;;;;274.87;34.77;;;6.00;99.90;;;;;;4958460;29;20486;-79
2022/02/01 11:59:07;;;;;;;155.47;24.73;;;6.00;99.90;;;;;;4957805;28;20961;-79
2022/02/01 12:01:39;;;;;;;134.67;15.40;;;6.10;99.90;;;;;;4958516;28;20473;-78
2022/02/01 12:04:11;;;;;;;238.93;39.27;;;6.10;99.90;;;;;;4957433;29;20557;-79
2022/02/01 12:06:45;;;;;;;153.27;35.67;;;6.20;99.90;;;;;;4957631;28;20497;-79
2022/02/01 12:09:20;;;;;;;202.30;29.13;;;6.20;99.90;;;;;;4958935;28;20553;-79
2022/02/01 12:11:55;;;;;;;190.93;24.23;;;6.20;99.90;;;;;;4957288;28;20835;-79
2022/02/01 12:14:23;;;;;;;219.67;29.03;;;6.30;99.90;;;;;;4957917;29;20446;-79
2022/02/01 12:16:55;;;;;;;260.10;23.13;;;6.30;99.90;;;;;;4957710;28;20454;-79
2022/02/01 12:19:30;;;;;;;248.40;23.23;;;6.30;99.90;;;;;;4957555;29;20483;-79
2022/02/01 12:22:29;;;;;;;135.30;17.13;;;6.30;99.90;;;;;;4957309;28;20452;-78
2022/02/01 12:25:02;;;;;;;66.37;12.30;;;6.40;99.90;;;;;;4957240;28;21013;-79
2022/02/01 12:27:35;;;;;;;73.37;9.77;;;6.40;99.90;;;;;;4958174;29;21040;-80
2022/02/01 12:30:05;;;;;;;204.37;16.13;;;6.40;99.90;;;;;;4958661;28;20458;-79
2022/02/01 12:32:35;;;;;;;135.70;15.43;;;6.40;99.90;;;;;;4958452;28;20479;-80
2022/02/01 12:35:04;;;;;;;153.93;17.13;;;6.50;99.90;;;;;;4957988;28;20465;-79
2022/02/01 12:37:33;;;;;;;205.00;26.77;;;6.50;99.90;;;;;;4958926;28;20538;-79
2022/02/01 12:40:09;;;;;;;248.27;39.10;;;6.50;99.90;;;;;;4957786;28;20554;-79
2022/02/01 12:42:45;;;;;;;133.87;17.23;;;6.50;99.90;;;;;;4957658;28;20457;-79
2022/02/01 12:48:06;;;;;;;203.37;20.40;;;6.60;99.90;;;;;;4957281;28;20542;-79
2022/02/01 12:50:34;;;;;;;246.23;31.57;;;6.60;99.90;;;;;;4957356;28;20463;-79
2022/02/01 12:53:05;;;;;;;102.03;13.40;;;6.60;99.90;;;;;;4958748;28;20952;-78
2022/02/01 12:55:33;;;;;;;161.33;28.23;;;6.70;99.90;;;;;;4957597;28;20444;-79
2022/02/01 12:58:15;;;;;;;222.93;25.37;;;6.70;99.90;;;;;;4957262;28;21103;-79
2022/02/01 13:00:51;;;;;;;165.27;14.70;;;6.80;99.90;;;;;;4956897;28;20489;-79
2022/02/01 13:03:22;;;;;;;243.97;29.10;;;6.80;99.90;;;;;;4955743;28;20450;-79
2022/02/01 13:05:57;;;;;;;160.67;23.63;;;6.80;99.90;;;;;;4958829;28;20496;-79
2022/02/01 13:14:41;;;;;;;114.43;14.70;;;6.90;99.90;;;;;;4957867;29;20527;-79
2022/02/01 13:17:21;;;;;;;175.80;22.83;;;6.90;99.90;;;;;;4958713;28;20554;-79
2022/02/01 13:20:12;;;;;;;215.53;29.00;;;6.90;99.90;;;;;;4959559;28;20790;-79
2022/02/01 13:22:54;;;;;;;148.50;19.13;;;7.00;99.90;;;;;;4957524;28;20945;-80
2022/02/01 13:25:32;;;;;;;215.90;21.90;;;7.10;99.90;;;;;;4958252;28;20462;-79
2022/02/01 13:28:02;;;;;;;218.67;33.03;;;7.10;99.90;;;;;;4958920;28;20516;-79
2022/02/01 13:30:31;;;;;;;181.47;29.83;;;7.10;99.90;;;;;;4958472;28;20526;-79
2022/02/01 13:33:07;;;;;;;179.87;26.87;;;7.20;99.90;;;;;;4956905;28;20455;-79
2022/02/01 13:35:49;;;;;;;255.37;21.97;;;7.20;99.90;;;;;;4957050;28;20461;-79
2022/02/01 13:38:22;;;;;;;343.30;32.37;;;7.20;99.90;;;;;;4974549;28;20514;-79
2022/02/01 13:40:50;;;;;;;120.03;27.10;;;7.20;99.90;;;;;;4961304;28;20432;-79
2022/02/01 13:43:21;;;;;;;93.50;17.10;;;7.30;99.90;;;;;;4960799;28;20455;-79
2022/02/01 13:45:55;;;;;;;240.23;34.87;;;7.30;99.90;;;;;;4957785;28;20849;-79
2022/02/01 13:48:26;;;;;;;90.30;18.93;;;7.30;99.90;;;;;;4956847;28;20491;-79
2022/02/01 13:50:58;;;;;;;135.97;16.80;;;7.30;99.90;;;;;;4958424;28;20527;-79
2022/02/01 13:53:26;;;;;;;120.70;16.13;;;7.40;99.90;;;;;;4957827;28;20459;-78
2022/02/01 13:56:03;;;;;;;194.87;36.93;;;7.40;99.90;;;;;;4955943;28;20544;-78
2022/02/01 13:58:34;;;;;;;149.17;24.27;;;7.50;99.90;;;;;;4957215;28;20520;-79
2022/02/01 14:01:02;;;;;;;243.97;31.10;;;7.50;99.90;;;;;;4956949;28;20462;-79
2022/02/01 14:03:38;;;;;;;158.77;22.47;;;7.50;99.90;;;;;;4957658;28;20503;-78
2022/02/01 14:06:20;;;;;;;239.93;37.50;;;7.60;99.90;;;;;;4956290;28;20478;-79
2022/02/01 14:08:58;;;;;;;247.77;32.97;;;7.60;99.90;;;;;;4956685;28;20473;-79
2022/02/01 14:12:00;;;;;;;133.33;16.90;;;7.70;99.90;;;;;;4958135;28;20451;-78
2022/02/01 14:14:45;;;;;;;219.60;27.33;;;7.70;99.90;;;;;;4960772;28;20427;-79
2022/02/01 14:26:15;;;;;;;168.50;29.63;;;7.80;99.90;;;;;;4960414;28;20503;-79
2022/02/01 14:28:50;;;;;;;248.20;36.57;;;7.90;99.90;;;;;;4960770;28;20474;-79
2022/02/01 14:34:07;;;;;;;273.13;39.30;;;7.90;99.90;;;;;;4960813;28;20865;-79
2022/02/01 14:36:38;;;;;;;417.70;52.47;;;7.90;99.90;;;;;;4959561;28;20537;-79
2022/02/01 14:42:50;;;;;;;336.10;50.77;;;8.00;99.90;;;;;;4958971;28;20519;-79
2022/02/01 14:44:52;;;;;;;290.03;32.57;;;8.00;99.90;;;;;;4958403;28;21038;-78
2022/02/01 14:47:22;;;;;;;324.37;26.67;;;8.00;99.90;;;;;;4958655;28;20454;-79
2022/02/01 14:49:52;;;;;;;340.53;49.43;;;8.10;99.90;;;;;;4959382;28;20964;-79
2022/02/01 14:52:20;;;;;;;293.80;32.63;;;8.10;99.90;;;;;;4958794;28;20457;-79
2022/02/01 14:54:53;;;;;;;315.00;34.57;;;8.10;99.90;;;;;;4958994;28;20455;-79
2022/02/01 15:11:27;;;;;;;284.50;29.37;;;8.20;99.90;;;;;;4959397;28;20437;-79
2022/02/01 15:13:55;;;;;;;272.90;30.33;;;8.30;99.90;;;;;;4957732;28;21029;-79
2022/02/01 15:16:28;;;;;;;432.53;64.83;;;8.30;99.90;;;;;;4958211;28;20480;-79
2022/02/01 15:18:56;;;;;;;413.13;43.27;;;8.30;99.90;;;;;;4958775;28;20474;-79
2022/02/01 15:21:25;;;;;;;379.00;45.80;;;8.30;99.90;;;;;;4957344;28;20453;-79
2022/02/01 15:23:54;;;;;;;427.53;58.37;;;8.30;99.90;;;;;;4957010;28;20909;-79
2022/02/01 15:26:23;;;;;;;196.20;35.50;;;8.30;99.90;;;;;;4957212;28;20572;-79
2022/02/01 15:28:53;;;;;;;127.70;25.57;;;8.30;99.90;;;;;;4959133;28;20990;-78